KGTB

Wheeler-Sack AAF Airport

Fort Drum, New York, USA
METAR KGTB 250456Z AUTO 24009KT 10SM CLR 19/06 A2999 RMK AO2 SLP154 T01890064 402350058
Observed Flight Rules
May-25 @ 04:56 UTC (30 minutes ago) Visual Flight Rules
Wind Visibility Clouds
240° at 9 knots 10 miles
  • Clear skies
Temperatures Readings
Current 19°C / 66°F
Dewpoint 6°C / 43°F
Humidity 43%
Altimeter 29.99" Hg
Pressure 1015.4 hPa
Elevation 207
METAR KGTB 250456Z AUTO 24009KT 10SM CLR 19/06 A2999 RMK AO2 SLP154 T01890064 402350058
Observed Flight Rules
May-25 @ 04:56 UTC
(30 minutes ago)
VFR
Wind Visibility
240° at 9 knots 10 miles
Clouds
  • Clear skies
Temperature Dewpoint
19°C / 66°F 6°C / 43°F
Humidity Altimeter Pressure
43% 29.99" Hg 1015.4 hPa